createdAt,value
2022-12-08T00:01:20.671Z,16.77
2022-12-08T00:03:48.180Z,16.83
2022-12-08T00:06:55.208Z,16.00
2022-12-08T00:09:29.996Z,16.30
2022-12-08T00:12:15.496Z,14.60
2022-12-08T00:14:44.189Z,16.00
2022-12-08T00:17:12.557Z,15.33
2022-12-08T00:19:39.677Z,16.40
2022-12-08T00:22:07.711Z,16.40
2022-12-08T00:24:36.142Z,17.07
2022-12-08T00:27:03.209Z,17.50
2022-12-08T00:29:30.505Z,15.10
2022-12-08T00:31:57.982Z,14.20
2022-12-08T00:34:25.239Z,15.60
2022-12-08T00:36:52.747Z,14.77
2022-12-08T00:39:19.703Z,14.20
2022-12-08T00:42:05.572Z,14.83
2022-12-08T00:44:32.729Z,13.87
2022-12-08T00:46:59.832Z,14.53
2022-12-08T00:49:27.013Z,14.57
2022-12-08T00:51:53.933Z,16.27
2022-12-08T00:54:21.112Z,15.43
2022-12-08T00:56:48.121Z,15.47
2022-12-08T00:59:15.288Z,15.57
2022-12-08T01:01:44.536Z,14.40
2022-12-08T01:04:15.628Z,15.23
2022-12-08T01:06:43.025Z,15.23
2022-12-08T01:09:10.402Z,14.43
2022-12-08T01:11:37.801Z,14.40
2022-12-08T01:14:04.968Z,15.60
2022-12-08T01:16:33.509Z,14.47
2022-12-08T01:19:01.086Z,14.10
2022-12-08T01:21:28.425Z,14.97
2022-12-08T01:23:55.752Z,14.70
2022-12-08T01:26:23.054Z,14.23
2022-12-08T01:28:50.299Z,14.37
2022-12-08T01:31:19.472Z,15.40
2022-12-08T01:33:46.985Z,13.83
2022-12-08T01:36:27.556Z,14.13
2022-12-08T01:38:55.102Z,15.27
2022-12-08T01:41:23.753Z,13.80
2022-12-08T01:44:01.923Z,13.80
2022-12-08T01:46:33.172Z,14.80
2022-12-08T01:49:28.068Z,14.90
2022-12-08T01:52:16.805Z,13.97
2022-12-08T01:54:49.977Z,14.97
2022-12-08T01:57:29.131Z,16.63
2022-12-08T02:00:06.330Z,14.37
2022-12-08T02:02:38.878Z,14.73
2022-12-08T02:05:06.918Z,13.87
2022-12-08T02:07:34.012Z,14.33
2022-12-08T02:10:01.528Z,13.37
2022-12-08T02:12:29.138Z,13.87
2022-12-08T02:14:57.559Z,13.83
2022-12-08T02:17:47.949Z,14.70
2022-12-08T02:20:33.310Z,15.60
2022-12-08T02:23:06.347Z,15.37
2022-12-08T02:25:40.423Z,14.77
2022-12-08T02:28:38.210Z,14.93
2022-12-08T02:31:11.091Z,13.70
2022-12-08T02:33:56.324Z,14.63
2022-12-08T02:36:27.036Z,14.50
2022-12-08T02:39:18.938Z,14.27
2022-12-08T02:42:23.329Z,14.17
2022-12-08T02:45:00.668Z,13.50
2022-12-08T02:47:27.871Z,13.73
2022-12-08T02:49:58.360Z,14.63
2022-12-08T02:52:25.520Z,14.17
2022-12-08T02:54:55.968Z,13.60
2022-12-08T02:57:46.912Z,14.50
2022-12-08T03:00:56.162Z,13.73
2022-12-08T03:03:42.095Z,13.87
2022-12-08T03:06:27.792Z,13.70
2022-12-08T03:09:08.877Z,14.23
2022-12-08T03:11:48.966Z,13.53
2022-12-08T03:14:17.324Z,12.90
2022-12-08T03:16:46.566Z,15.17
2022-12-08T03:19:21.488Z,12.73
2022-12-08T03:21:51.550Z,13.63
2022-12-08T03:24:18.786Z,12.63
2022-12-08T03:26:51.019Z,14.07
2022-12-08T03:29:18.344Z,14.43
2022-12-08T03:31:51.275Z,13.73
2022-12-08T03:34:18.593Z,13.10
2022-12-08T03:36:45.905Z,14.80
2022-12-08T03:39:12.907Z,13.80
2022-12-08T03:41:40.330Z,14.77
2022-12-08T03:44:07.612Z,14.47
2022-12-08T03:46:34.868Z,13.53
2022-12-08T03:49:01.979Z,13.00
2022-12-08T03:51:29.002Z,13.90
2022-12-08T03:53:56.486Z,13.50
2022-12-08T03:56:34.443Z,14.27
2022-12-08T03:59:01.715Z,13.93
2022-12-08T04:01:28.970Z,13.63
2022-12-08T04:03:56.257Z,12.83
2022-12-08T04:06:23.531Z,14.87
2022-12-08T04:08:51.023Z,13.20
2022-12-08T04:11:18.923Z,13.70
2022-12-08T04:13:46.476Z,13.03
2022-12-08T04:16:15.940Z,12.80
2022-12-08T04:18:43.220Z,13.83
2022-12-08T04:21:10.442Z,13.43
2022-12-08T04:23:37.572Z,13.10
2022-12-08T04:26:04.976Z,13.10
2022-12-08T04:28:32.399Z,14.27
2022-12-08T04:30:59.884Z,13.17
2022-12-08T04:33:27.198Z,12.47
2022-12-08T04:35:54.490Z,13.00
2022-12-08T04:38:21.696Z,13.17
2022-12-08T04:40:48.899Z,13.90
2022-12-08T04:43:16.459Z,12.93
2022-12-08T04:45:43.611Z,13.33
2022-12-08T04:48:13.260Z,14.63
2022-12-08T04:50:41.868Z,15.43
2022-12-08T04:53:09.477Z,16.50
2022-12-08T04:55:39.875Z,15.43
2022-12-08T04:58:07.340Z,16.23
2022-12-08T05:00:34.528Z,15.70
2022-12-08T05:03:01.672Z,17.17
2022-12-08T05:05:28.920Z,18.07
2022-12-08T05:07:56.166Z,16.37
2022-12-08T05:10:23.515Z,17.97
2022-12-08T05:12:50.743Z,17.40
2022-12-08T05:15:17.926Z,16.93
2022-12-08T05:17:45.054Z,16.97
2022-12-08T05:20:12.466Z,18.03
2022-12-08T05:22:39.556Z,17.67
2022-12-08T05:25:06.917Z,17.20
2022-12-08T05:27:34.329Z,17.93
2022-12-08T05:30:01.632Z,18.33
2022-12-08T05:32:29.145Z,18.93
2022-12-08T05:34:56.256Z,18.53
2022-12-08T05:37:23.640Z,18.50
2022-12-08T05:39:50.843Z,17.17
2022-12-08T05:42:23.148Z,16.67
2022-12-08T05:44:51.958Z,17.07
2022-12-08T05:47:19.076Z,15.50
2022-12-08T05:49:46.281Z,15.57
2022-12-08T05:52:13.481Z,14.30
2022-12-08T05:54:40.758Z,14.20
2022-12-08T05:57:08.094Z,17.30
2022-12-08T05:59:35.358Z,15.13
2022-12-08T06:02:02.619Z,14.93
2022-12-08T06:04:29.887Z,13.63
2022-12-08T06:06:57.063Z,14.63
2022-12-08T06:09:24.401Z,14.97
2022-12-08T06:11:51.639Z,15.43
2022-12-08T06:14:18.820Z,15.50
2022-12-08T06:16:46.149Z,15.83
2022-12-08T06:19:13.479Z,15.20
2022-12-08T06:21:41.982Z,15.03
2022-12-08T06:24:09.431Z,14.50
2022-12-08T06:26:36.535Z,14.57
2022-12-08T06:29:05.064Z,15.83
2022-12-08T06:31:32.476Z,18.33
2022-12-08T06:33:59.836Z,16.90
2022-12-08T06:36:28.169Z,18.00
2022-12-08T06:38:55.479Z,12.33
2022-12-08T06:41:22.506Z,13.37
2022-12-08T06:43:49.716Z,22.50
2022-12-08T06:46:18.835Z,24.70
2022-12-08T06:48:46.103Z,17.47
2022-12-08T06:51:15.413Z,19.53
2022-12-08T06:53:42.944Z,19.70
2022-12-08T06:56:10.161Z,15.73
2022-12-08T06:58:37.175Z,25.97
2022-12-08T07:01:08.644Z,19.73
2022-12-08T07:03:36.322Z,32.10
2022-12-08T07:06:04.365Z,32.33
2022-12-08T07:08:32.823Z,16.10
2022-12-08T07:10:59.962Z,12.87
2022-12-08T07:13:27.164Z,15.63
2022-12-08T07:15:54.137Z,12.83
2022-12-08T07:18:21.286Z,12.33
2022-12-08T07:20:48.597Z,12.60
2022-12-08T07:23:15.856Z,14.10
2022-12-08T07:25:42.868Z,13.87
2022-12-08T07:28:10.931Z,12.03
2022-12-08T07:30:38.804Z,16.47
2022-12-08T07:33:06.740Z,13.53
2022-12-08T07:35:35.223Z,12.27
2022-12-08T07:38:02.837Z,11.67
2022-12-08T07:40:30.031Z,11.73
2022-12-08T07:42:57.228Z,12.03
2022-12-08T07:45:29.895Z,11.97
2022-12-08T07:47:58.771Z,11.57
2022-12-08T07:50:25.961Z,12.37
2022-12-08T07:52:52.956Z,10.93
2022-12-08T07:55:20.053Z,13.67
2022-12-08T07:57:47.085Z,17.87
2022-12-08T08:00:15.624Z,54.37
2022-12-08T08:02:43.005Z,69.53
2022-12-08T08:05:10.791Z,56.03
2022-12-08T08:07:38.181Z,41.23
2022-12-08T08:10:06.888Z,58.30
2022-12-08T08:12:34.089Z,62.47
2022-12-08T08:15:01.692Z,77.73
2022-12-08T08:17:29.623Z,16.63
2022-12-08T08:19:56.973Z,15.07
2022-12-08T08:22:25.392Z,14.80
2022-12-08T08:24:52.570Z,16.50
2022-12-08T08:27:19.842Z,25.00
2022-12-08T08:29:46.761Z,14.00
2022-12-08T08:32:13.964Z,12.40
2022-12-08T08:34:41.095Z,12.23
2022-12-08T08:37:08.367Z,11.27
2022-12-08T08:39:35.658Z,11.40
2022-12-08T08:42:03.242Z,11.37
2022-12-08T08:44:30.502Z,11.93
2022-12-08T08:46:57.783Z,20.43
2022-12-08T08:49:25.289Z,27.47
2022-12-08T08:51:52.327Z,13.73
2022-12-08T08:54:19.316Z,11.20
2022-12-08T08:56:46.282Z,18.37
2022-12-08T08:59:13.290Z,13.00
2022-12-08T09:01:40.431Z,13.73
2022-12-08T09:04:07.547Z,15.53
2022-12-08T09:06:34.756Z,11.67
2022-12-08T09:09:01.825Z,12.93
2022-12-08T09:11:28.878Z,13.93
2022-12-08T09:13:55.880Z,15.47
2022-12-08T09:16:23.070Z,15.70
2022-12-08T09:18:50.736Z,12.33
2022-12-08T09:21:23.061Z,12.73
2022-12-08T09:23:50.992Z,13.03
2022-12-08T09:26:18.369Z,12.63
2022-12-08T09:28:46.888Z,14.40
2022-12-08T09:31:14.612Z,15.03
2022-12-08T09:33:41.973Z,14.07
2022-12-08T09:36:09.746Z,20.47
2022-12-08T09:38:37.234Z,28.37
2022-12-08T09:41:07.848Z,20.50
2022-12-08T09:43:43.976Z,17.10
2022-12-08T09:46:11.834Z,17.63
2022-12-08T09:48:42.194Z,14.57
2022-12-08T09:51:09.508Z,12.30
2022-12-08T09:53:48.790Z,14.73
2022-12-08T09:56:19.530Z,17.07
2022-12-08T09:59:02.743Z,20.00
2022-12-08T10:01:34.050Z,17.83
2022-12-08T10:04:01.509Z,15.97
2022-12-08T10:06:38.887Z,14.57
2022-12-08T10:09:31.557Z,15.50
2022-12-08T10:12:20.396Z,14.73
2022-12-08T10:15:43.468Z,13.83
2022-12-08T10:18:19.118Z,13.63
2022-12-08T10:20:48.087Z,13.27
2022-12-08T10:23:25.891Z,14.20
2022-12-08T10:25:58.803Z,14.10
2022-12-08T10:28:26.042Z,12.50
2022-12-08T10:30:53.028Z,14.00
2022-12-08T10:33:21.979Z,14.30
2022-12-08T10:35:50.702Z,16.50
2022-12-08T10:38:27.408Z,15.10
2022-12-08T10:40:58.013Z,16.00
2022-12-08T10:43:25.755Z,14.80
2022-12-08T10:45:52.919Z,14.70
2022-12-08T10:48:26.098Z,14.87
2022-12-08T10:50:54.119Z,15.10
2022-12-08T10:53:22.654Z,17.20
2022-12-08T10:56:01.748Z,16.63
2022-12-08T10:58:35.881Z,17.07
2022-12-08T11:01:24.733Z,15.27
2022-12-08T11:03:52.524Z,18.10
2022-12-08T11:06:38.895Z,15.90
2022-12-08T11:09:18.268Z,15.67
2022-12-08T11:11:48.373Z,13.77
2022-12-08T11:14:24.227Z,14.17
2022-12-08T11:16:53.088Z,14.43
2022-12-08T11:19:20.435Z,12.97
2022-12-08T11:21:47.808Z,15.73
2022-12-08T11:24:14.897Z,15.43
2022-12-08T11:26:44.456Z,21.60
2022-12-08T11:29:14.516Z,22.77
2022-12-08T11:31:50.437Z,17.67
2022-12-08T11:34:41.773Z,20.77
2022-12-08T11:37:14.019Z,19.77
2022-12-08T11:39:43.839Z,16.37
2022-12-08T11:42:11.893Z,15.97
2022-12-08T11:44:58.995Z,15.03
2022-12-08T11:47:35.308Z,17.87
2022-12-08T11:50:05.186Z,15.60
2022-12-08T11:52:35.444Z,14.23
2022-12-08T11:55:43.913Z,15.00
2022-12-08T11:58:44.863Z,14.77
2022-12-08T12:01:22.995Z,13.43
2022-12-08T12:04:08.674Z,15.70
2022-12-08T12:06:55.158Z,13.67
2022-12-08T12:09:34.661Z,14.77
2022-12-08T12:12:19.417Z,14.10
2022-12-08T12:15:05.063Z,14.77
2022-12-08T12:17:50.340Z,15.03
2022-12-08T12:20:26.223Z,16.53
2022-12-08T12:23:16.769Z,14.23
2022-12-08T12:25:56.667Z,14.03
2022-12-08T12:28:25.088Z,14.47
2022-12-08T12:30:57.000Z,12.70
2022-12-08T12:33:24.030Z,12.90
2022-12-08T12:35:51.254Z,14.80
2022-12-08T12:38:51.463Z,14.70
2022-12-08T12:41:28.958Z,14.30
2022-12-08T12:44:14.376Z,12.43
2022-12-08T12:46:48.710Z,12.53
2022-12-08T12:49:40.632Z,15.37
2022-12-08T12:52:10.827Z,13.03
2022-12-08T12:54:37.849Z,12.73
2022-12-08T12:57:04.936Z,14.57
2022-12-08T12:59:43.177Z,12.53
2022-12-08T13:02:32.074Z,12.83
2022-12-08T13:05:11.037Z,11.03
2022-12-08T13:07:46.640Z,12.37
2022-12-08T13:10:19.141Z,11.60
2022-12-08T13:12:46.270Z,11.23
2022-12-08T13:15:20.340Z,12.10
2022-12-08T13:17:48.307Z,12.00
2022-12-08T13:20:24.116Z,12.60
2022-12-08T13:22:54.136Z,13.17
2022-12-08T13:25:39.851Z,12.30
2022-12-08T13:28:20.468Z,11.83
2022-12-08T13:30:52.790Z,11.67
2022-12-08T13:33:24.258Z,11.97
2022-12-08T13:36:01.053Z,13.10
2022-12-08T13:38:30.275Z,12.57
2022-12-08T13:40:57.287Z,12.40
2022-12-08T13:43:48.489Z,12.70
2022-12-08T13:55:25.859Z,12.90
2022-12-08T13:57:35.105Z,13.70
2022-12-08T14:00:22.793Z,13.23
2022-12-08T14:02:51.460Z,12.30
2022-12-08T14:05:26.637Z,13.80
2022-12-08T14:08:02.366Z,13.03
2022-12-08T14:10:30.633Z,13.43
2022-12-08T14:13:01.249Z,13.47
2022-12-08T14:15:34.011Z,13.63
2022-12-08T14:18:04.136Z,14.47
2022-12-08T14:20:51.813Z,13.30
2022-12-08T14:23:22.138Z,12.43
2022-12-08T14:25:49.318Z,14.07
2022-12-08T14:28:16.570Z,12.90
2022-12-08T14:30:44.011Z,14.60
2022-12-08T14:33:15.301Z,14.17
2022-12-08T14:35:42.539Z,14.70
2022-12-08T14:38:13.855Z,16.20
2022-12-08T14:41:03.815Z,16.43
2022-12-08T14:43:31.398Z,12.97
2022-12-08T14:46:06.777Z,13.07
2022-12-08T14:48:34.191Z,13.13
2022-12-08T14:51:04.197Z,13.13
2022-12-08T14:53:37.797Z,14.00
2022-12-08T14:56:24.922Z,14.17
2022-12-08T14:59:06.091Z,12.57
2022-12-08T15:01:33.371Z,13.60
2022-12-08T15:04:07.946Z,15.73
2022-12-08T15:06:35.465Z,13.37
2022-12-08T15:09:18.405Z,14.53
2022-12-08T15:11:45.484Z,16.00
2022-12-08T15:14:32.389Z,13.93
2022-12-08T15:16:59.784Z,13.43
2022-12-08T15:19:34.027Z,14.23
2022-12-08T15:22:17.654Z,13.60
2022-12-08T15:24:44.858Z,14.47
2022-12-08T15:27:18.642Z,13.70
2022-12-08T15:29:47.398Z,13.77
2022-12-08T15:32:20.598Z,14.67
2022-12-08T15:34:47.949Z,15.60
2022-12-08T15:37:24.818Z,21.97
2022-12-08T15:39:52.257Z,16.93
2022-12-08T15:42:19.467Z,14.73
2022-12-08T15:44:46.700Z,14.30
2022-12-08T15:47:21.235Z,16.30
2022-12-08T15:49:49.892Z,13.87
2022-12-08T15:52:20.010Z,14.27
2022-12-08T15:54:47.275Z,13.83
2022-12-08T15:57:53.030Z,12.33
2022-12-08T16:00:57.908Z,13.90
2022-12-08T16:09:18.404Z,13.03
2022-12-08T16:12:07.577Z,12.90
2022-12-08T16:17:23.981Z,13.43
2022-12-08T16:19:51.121Z,12.80
2022-12-08T16:25:23.164Z,12.87
2022-12-08T16:28:08.400Z,13.57
2022-12-08T16:30:40.219Z,13.50
2022-12-08T16:33:07.594Z,13.13
2022-12-08T16:35:34.956Z,14.00
2022-12-08T16:38:02.251Z,15.10
2022-12-08T16:40:29.493Z,14.80
2022-12-08T16:42:57.378Z,17.27
2022-12-08T16:45:25.551Z,14.70
2022-12-08T16:47:53.553Z,12.77
2022-12-08T16:50:25.673Z,12.77
2022-12-08T16:53:01.236Z,13.97
2022-12-08T16:55:28.532Z,13.20
2022-12-08T16:57:56.310Z,12.00
2022-12-08T17:00:25.168Z,12.63
2022-12-08T17:02:53.015Z,12.90
2022-12-08T17:05:21.347Z,15.10
2022-12-08T17:07:49.704Z,13.80
2022-12-08T17:10:18.992Z,12.07
2022-12-08T17:12:46.292Z,11.53
2022-12-08T17:15:15.609Z,14.03
2022-12-08T17:17:42.969Z,12.43
2022-12-08T17:20:13.059Z,13.77
2022-12-08T17:22:40.644Z,12.47
2022-12-08T17:25:08.208Z,13.27
2022-12-08T17:27:35.801Z,13.23
2022-12-08T17:30:03.292Z,16.80
2022-12-08T17:32:31.216Z,11.87
2022-12-08T17:34:58.571Z,12.00
2022-12-08T17:37:26.378Z,13.13
2022-12-08T17:39:53.596Z,13.43
2022-12-08T17:42:25.950Z,12.33
2022-12-08T17:44:53.917Z,11.73
2022-12-08T17:47:21.028Z,12.37
2022-12-08T17:49:48.077Z,11.73
2022-12-08T17:52:15.223Z,10.93
2022-12-08T17:54:42.443Z,12.13
2022-12-08T17:57:09.559Z,9.43
2022-12-08T17:59:36.645Z,11.30
2022-12-08T18:02:04.547Z,10.97
2022-12-08T18:04:31.932Z,12.07
2022-12-08T18:07:01.377Z,10.20
2022-12-08T18:09:30.517Z,12.20
2022-12-08T18:11:57.774Z,11.67
2022-12-08T18:14:24.921Z,10.70
2022-12-08T18:16:52.042Z,10.60
2022-12-08T18:19:19.256Z,11.10
2022-12-08T18:21:46.488Z,10.60
2022-12-08T18:24:19.239Z,9.97
2022-12-08T18:26:46.816Z,11.07
2022-12-08T18:29:13.984Z,11.50
2022-12-08T18:31:40.996Z,9.80
2022-12-08T18:34:08.034Z,12.27
2022-12-08T18:36:35.239Z,10.63
2022-12-08T18:39:07.183Z,11.17
2022-12-08T18:41:37.705Z,13.10
2022-12-08T18:44:04.947Z,14.03
2022-12-08T18:46:32.408Z,14.93
2022-12-08T18:48:59.668Z,11.10
2022-12-08T18:51:26.762Z,11.53
2022-12-08T18:53:53.880Z,10.43
2022-12-08T18:56:26.415Z,11.57
2022-12-08T18:58:58.476Z,11.70
2022-12-08T19:01:28.574Z,13.40
2022-12-08T19:04:26.926Z,10.47
2022-12-08T19:06:45.120Z,19.37
2022-12-08T19:09:12.772Z,12.07
2022-12-08T19:11:39.970Z,12.23
2022-12-08T19:14:07.585Z,11.20
2022-12-08T19:16:35.231Z,11.60
2022-12-08T19:19:02.716Z,10.53
2022-12-08T19:21:30.002Z,9.47
2022-12-08T19:23:58.571Z,12.10
2022-12-08T19:26:27.177Z,9.60
2022-12-08T19:28:54.740Z,10.50
2022-12-08T19:31:22.058Z,10.20
2022-12-08T19:33:49.280Z,11.60
2022-12-08T19:36:18.362Z,10.53
2022-12-08T19:39:04.109Z,11.13
2022-12-08T19:41:49.910Z,10.90
2022-12-08T19:44:26.633Z,10.60
2022-12-08T19:46:53.921Z,9.30
2022-12-08T19:49:21.059Z,9.00
2022-12-08T19:51:48.064Z,10.33
2022-12-08T19:54:15.141Z,10.80
2022-12-08T19:56:42.640Z,11.50
2022-12-08T19:59:09.860Z,11.63
2022-12-08T20:01:38.670Z,10.47
2022-12-08T20:04:05.999Z,10.77
2022-12-08T20:06:33.259Z,10.57
2022-12-08T20:09:01.183Z,10.70
2022-12-08T20:11:28.206Z,10.93
2022-12-08T20:13:55.271Z,11.07
2022-12-08T20:16:24.295Z,11.77
2022-12-08T20:18:52.105Z,11.83
2022-12-08T20:21:19.972Z,13.23
2022-12-08T20:23:49.795Z,13.43
2022-12-08T20:26:18.474Z,11.30
2022-12-08T20:28:45.954Z,12.57
2022-12-08T20:31:20.493Z,12.10
2022-12-08T20:33:47.856Z,13.53
2022-12-08T20:36:18.992Z,18.60
2022-12-08T20:38:47.288Z,18.57
2022-12-08T20:41:16.198Z,16.80
2022-12-08T20:43:46.930Z,14.43
2022-12-08T20:46:15.359Z,11.27
2022-12-08T20:48:43.187Z,12.50
2022-12-08T20:51:14.008Z,25.00
2022-12-08T20:53:41.297Z,15.00
2022-12-08T20:56:08.633Z,12.80
2022-12-08T20:58:35.946Z,13.83
2022-12-08T21:01:09.240Z,9.33
2022-12-08T21:03:36.623Z,9.00
2022-12-08T21:06:04.195Z,32.57
2022-12-08T21:08:31.869Z,22.07
2022-12-08T21:10:59.565Z,20.63
2022-12-08T21:13:26.693Z,15.33
2022-12-08T21:15:54.103Z,13.33
2022-12-08T21:18:21.462Z,10.70
2022-12-08T21:20:48.998Z,11.50
2022-12-08T21:23:16.543Z,10.33
2022-12-08T21:25:45.525Z,9.53
2022-12-08T21:28:13.272Z,9.63
2022-12-08T21:30:40.791Z,10.80
2022-12-08T21:33:08.353Z,9.33
2022-12-08T21:35:35.720Z,8.93
2022-12-08T21:38:04.068Z,8.70
2022-12-08T21:40:31.228Z,9.43
2022-12-08T21:42:58.409Z,8.83
2022-12-08T21:45:25.711Z,9.27
2022-12-08T21:47:53.610Z,9.00
2022-12-08T21:50:20.902Z,8.03
2022-12-08T21:52:48.707Z,9.17
2022-12-08T21:55:16.959Z,9.43
2022-12-08T21:57:44.204Z,8.60
2022-12-08T22:00:13.709Z,9.13
2022-12-08T22:02:41.127Z,8.53
2022-12-08T22:05:08.878Z,7.97
2022-12-08T22:07:38.597Z,8.50
2022-12-08T22:10:07.758Z,8.13
2022-12-08T22:12:36.165Z,8.07
2022-12-08T22:15:06.061Z,8.87
2022-12-08T22:17:36.632Z,9.70
2022-12-08T22:20:08.710Z,8.60
2022-12-08T22:22:36.177Z,9.90
2022-12-08T22:25:03.930Z,8.17
2022-12-08T22:27:31.223Z,8.63
2022-12-08T22:29:58.653Z,8.20
2022-12-08T22:32:26.026Z,6.90
2022-12-08T22:34:53.267Z,7.33
2022-12-08T22:37:20.608Z,7.97
2022-12-08T22:39:47.929Z,7.40
2022-12-08T22:42:15.305Z,7.37
2022-12-08T22:44:42.704Z,7.63
2022-12-08T22:47:09.979Z,7.90
2022-12-08T22:49:37.332Z,7.50
2022-12-08T22:52:04.674Z,7.57
2022-12-08T22:54:32.142Z,7.50
2022-12-08T22:56:59.390Z,8.37
2022-12-08T22:59:26.797Z,7.03
2022-12-08T23:01:54.211Z,7.03
2022-12-08T23:04:21.647Z,7.00
2022-12-08T23:06:49.330Z,7.00
2022-12-08T23:09:17.086Z,6.63
2022-12-08T23:11:44.377Z,6.53
2022-12-08T23:14:11.581Z,6.13
2022-12-08T23:16:38.928Z,7.33
2022-12-08T23:19:06.508Z,6.73
2022-12-08T23:21:34.181Z,7.83
2022-12-08T23:24:02.079Z,7.00
2022-12-08T23:26:30.620Z,7.43
2022-12-08T23:28:58.490Z,6.97
2022-12-08T23:31:25.820Z,7.13
2022-12-08T23:33:53.510Z,7.27
2022-12-08T23:36:21.410Z,6.97
2022-12-08T23:38:48.676Z,6.97
2022-12-08T23:41:16.273Z,7.17
2022-12-08T23:43:47.941Z,6.10
2022-12-08T23:46:15.873Z,6.83
2022-12-08T23:48:43.343Z,6.63
2022-12-08T23:51:10.709Z,6.50
2022-12-08T23:53:37.941Z,6.73
2022-12-08T23:56:07.341Z,6.83
2022-12-08T23:58:34.921Z,7.73
